Time;durP1;ratioP1;P1;durP2;ratioP2;P2;SDS_P1;SDS_P2;PMS_P1;PMS_P2;Temp;Humidity;BMP_temperature;BMP_pressure;BME280_temperature;BME280_humidity;BME280_pressure;Samples;Min_cycle;Max_cycle;Signal;HPM_P1;HPM_P2
2022/12/12 00:01:13;;;;;;;37.83;21.17;;;;;;;-4.39;91.31;100124.31;5044159;28;20205;-80
2022/12/12 00:03:39;;;;;;;32.20;20.63;;;;;;;-4.33;91.13;100119.44;5044155;28;20584;-80
2022/12/12 00:06:06;;;;;;;31.20;20.43;;;;;;;-4.26;91.22;100121.38;5044352;28;20692;-81
2022/12/12 00:08:32;;;;;;;23.43;17.50;;;;;;;-4.14;90.68;100126.06;5045815;28;20225;-80
2022/12/12 00:10:59;;;;;;;28.07;17.83;;;;;;;-4.08;90.64;100139.00;5037111;28;20260;-80
2022/12/12 00:13:27;;;;;;;23.77;17.60;;;;;;;-4.03;89.98;100150.22;5034948;28;20216;-80
2022/12/12 00:15:53;;;;;;;33.40;19.20;;;;;;;-4.06;89.97;100162.88;5034969;28;20739;-80
2022/12/12 00:18:19;;;;;;;29.03;18.03;;;;;;;-4.11;90.29;100172.03;5046173;28;20228;-80
2022/12/12 00:20:51;;;;;;;33.17;19.10;;;;;;;-4.20;90.06;100164.06;5053614;28;20212;-80
2022/12/12 00:23:17;;;;;;;32.20;18.83;;;;;;;-4.27;90.20;100155.31;5055883;28;20205;-80
2022/12/12 00:25:44;;;;;;;36.47;20.23;;;;;;;-4.39;90.40;100163.38;5055236;28;20209;-81
2022/12/12 00:28:10;;;;;;;30.27;20.50;;;;;;;-4.42;91.35;100140.34;5055584;28;20228;-80
2022/12/12 00:30:38;;;;;;;29.60;20.27;;;;;;;-4.45;91.86;100119.84;5055041;28;20222;-80
2022/12/12 00:33:04;;;;;;;40.47;21.80;;;;;;;-4.50;92.92;100101.00;5055477;28;20217;-81
2022/12/12 00:35:31;;;;;;;41.00;20.70;;;;;;;-4.59;94.20;100060.78;5054939;28;20232;-81
2022/12/12 00:37:57;;;;;;;44.87;22.60;;;;;;;-4.54;95.58;100032.91;5054543;28;20590;-81
2022/12/12 00:40:24;;;;;;;40.93;20.97;;;;;;;-4.54;95.37;100006.59;5054479;28;20205;-80
2022/12/12 00:42:50;;;;;;;38.23;20.20;;;;;;;-4.55;94.46;100020.16;5055103;28;20205;-79
2022/12/12 00:45:17;;;;;;;48.83;22.67;;;;;;;-4.59;95.02;100017.47;5054928;28;20683;-80
2022/12/12 00:47:44;;;;;;;34.73;19.93;;;;;;;-4.55;95.48;99999.78;5054834;28;20611;-80
2022/12/12 00:50:11;;;;;;;42.87;22.03;;;;;;;-4.61;95.17;99997.88;5054767;28;20229;-80
2022/12/12 00:52:37;;;;;;;37.40;20.83;;;;;;;-4.56;95.72;99990.38;5054803;28;20224;-80
2022/12/12 00:55:05;;;;;;;35.97;20.57;;;;;;;-4.51;95.09;99991.44;5054919;28;20213;-80
2022/12/12 00:57:31;;;;;;;42.20;22.27;;;;;;;-4.51;94.92;99997.38;5054916;28;20232;-81
2022/12/12 00:59:57;;;;;;;34.83;20.33;;;;;;;-4.41;95.03;99991.78;5054601;28;20205;-80
2022/12/12 01:02:24;;;;;;;35.07;20.50;;;;;;;-4.33;95.25;99997.13;5054666;28;20212;-80
2022/12/12 01:04:52;;;;;;;36.90;21.23;;;;;;;-4.29;94.90;100010.84;5054804;28;20225;-80
2022/12/12 01:07:18;;;;;;;42.17;19.60;;;;;;;-4.31;94.31;100025.22;5054858;28;20620;-81
2022/12/12 01:09:44;;;;;;;39.63;21.80;;;;;;;-4.23;95.26;100022.09;5054961;28;20661;-79
2022/12/12 01:12:11;;;;;;;36.27;21.23;;;;;;;-4.23;94.89;100023.78;5054254;28;20208;-80
2022/12/12 01:14:37;;;;;;;50.23;23.53;;;;;;;-4.22;95.55;100018.75;5054521;28;20209;-80
2022/12/12 01:17:04;;;;;;;46.93;22.70;;;;;;;-4.22;95.94;100012.81;5054766;28;20206;-80
2022/12/12 01:19:30;;;;;;;45.10;22.07;;;;;;;-4.29;96.25;99998.97;5054092;28;20595;-81
2022/12/12 01:21:58;;;;;;;43.30;22.53;;;;;;;-4.20;96.69;99988.25;5053634;28;20684;-81
2022/12/12 01:24:24;;;;;;;36.23;20.33;;;;;;;-4.28;96.73;99997.28;5054208;28;20675;-81
2022/12/12 01:26:51;;;;;;;43.13;20.47;;;;;;;-4.26;96.62;99990.56;5054462;28;20217;-80
2022/12/12 01:29:17;;;;;;;40.77;21.27;;;;;;;-4.33;96.38;99998.81;5054558;28;20233;-80
2022/12/12 01:31:44;;;;;;;37.97;19.90;;;;;;;-4.23;96.15;100000.88;5053701;28;20715;-80
2022/12/12 01:34:11;;;;;;;37.50;20.70;;;;;;;-4.26;96.78;100009.28;5054627;28;20201;-80
2022/12/12 01:36:37;;;;;;;36.50;21.10;;;;;;;-4.40;96.46;100011.34;5054462;28;20292;-80
2022/12/12 01:39:05;;;;;;;31.60;19.03;;;;;;;-4.61;96.68;100015.72;5054034;28;20631;-80
2022/12/12 01:41:32;;;;;;;42.00;20.67;;;;;;;-4.86;96.19;100019.03;5054313;28;20224;-80
2022/12/12 01:44:00;;;;;;;37.30;20.30;;;;;;;-4.97;96.10;100030.50;5054606;28;20209;-80
2022/12/12 01:46:40;;;;;;;37.47;21.10;;;;;;;-5.00;96.14;100024.50;5054345;28;20201;-80
2022/12/12 01:49:20;;;;;;;41.57;22.07;;;;;;;-5.03;96.81;100015.91;5054085;28;20233;-80
2022/12/12 01:51:49;;;;;;;35.63;20.80;;;;;;;-5.01;97.63;99999.00;5054161;28;20228;-80
2022/12/12 01:54:22;;;;;;;37.47;20.37;;;;;;;-4.92;97.83;99988.28;5054309;28;20684;-80
2022/12/12 01:56:50;;;;;;;38.13;20.57;;;;;;;-4.89;97.10;99996.03;5054000;28;20197;-80
2022/12/12 01:59:20;;;;;;;45.93;23.67;;;;;;;-5.01;97.93;99993.94;5054587;28;20235;-80
2022/12/12 02:01:47;;;;;;;46.27;23.07;;;;;;;-5.03;98.65;99970.97;5054020;28;20222;-79
2022/12/12 02:04:15;;;;;;;49.07;23.13;;;;;;;-5.07;99.01;99964.03;5054352;28;20212;-80
2022/12/12 02:06:42;;;;;;;46.50;24.63;;;;;;;-5.04;99.43;99958.16;5056319;28;20213;-80
2022/12/12 02:09:11;;;;;;;53.57;23.73;;;;;;;-5.05;99.55;99946.28;5055879;28;20225;-80
2022/12/12 02:11:43;;;;;;;48.97;22.73;;;;;;;-5.07;99.25;99945.34;5055666;28;20263;-80
2022/12/12 02:14:10;;;;;;;53.63;24.63;;;;;;;-5.05;99.53;99944.59;5056429;28;20209;-81
2022/12/12 02:16:54;;;;;;;53.03;25.33;;;;;;;-5.06;100.00;99934.34;5056385;28;20209;-80
2022/12/12 02:19:47;;;;;;;54.43;24.57;;;;;;;-5.10;99.79;99937.59;5056372;28;20628;-80
2022/12/12 02:22:29;;;;;;;52.40;24.70;;;;;;;-5.13;100.00;99928.19;5039812;28;20209;-81
2022/12/12 02:25:21;;;;;;;51.70;23.07;;;;;;;-5.13;99.56;99935.81;5056377;28;20205;-80
2022/12/12 02:28:14;;;;;;;53.43;22.53;;;;;;;-5.11;100.00;99938.41;5056129;28;20229;-80
2022/12/12 02:30:48;;;;;;;59.17;25.47;;;;;;;-5.08;99.77;99939.38;5055705;28;20208;-80
2022/12/12 02:33:27;;;;;;;46.27;23.47;;;;;;;-5.07;100.00;99930.09;5056082;28;20216;-80
2022/12/12 02:36:04;;;;;;;56.67;24.47;;;;;;;-5.01;100.00;99935.41;5056171;28;20216;-80
2022/12/12 02:38:37;;;;;;;53.27;23.13;;;;;;;-4.96;100.00;99950.81;5056578;28;20829;-81
2022/12/12 02:41:15;;;;;;;49.37;25.70;;;;;;;-4.96;100.00;99946.59;5056016;28;20225;-80
2022/12/12 02:43:50;;;;;;;54.33;25.33;;;;;;;-4.92;100.00;99956.06;5056915;28;20207;-81
2022/12/12 02:46:24;;;;;;;51.17;24.80;;;;;;;-4.84;100.00;99953.78;5057281;28;20287;-80
2022/12/12 02:48:57;;;;;;;52.43;24.20;;;;;;;-4.84;99.68;99959.72;5056259;28;20239;-81
2022/12/12 02:51:26;;;;;;;47.90;23.90;;;;;;;-4.78;99.34;99974.38;5056775;28;20213;-81
2022/12/12 02:53:53;;;;;;;41.00;22.47;;;;;;;-4.62;99.06;99984.28;5056974;28;20248;-80
2022/12/12 02:56:47;;;;;;;45.40;22.07;;;;;;;-4.44;98.64;99998.44;5057225;28;20560;-81
2022/12/12 02:59:19;;;;;;;43.83;20.77;;;;;;;-4.31;97.58;100018.44;5056711;28;20225;-81
2022/12/12 03:02:00;;;;;;;43.20;22.40;;;;;;;-4.23;96.18;100044.19;5056261;28;20226;-81
2022/12/12 03:07:47;;;;;;;40.97;20.43;;;;;;;-4.48;93.49;100109.56;5056643;28;20702;-80
2022/12/12 03:10:23;;;;;;;47.40;22.40;;;;;;;-4.67;94.80;100128.38;5056253;28;20209;-80
2022/12/12 03:12:59;;;;;;;47.80;25.43;;;;;;;-4.69;96.20;100113.88;5056411;28;20208;-81
2022/12/12 03:15:32;;;;;;;44.70;21.70;;;;;;;-4.68;95.84;100090.13;5055994;28;20267;-81
2022/12/12 03:18:10;;;;;;;55.43;23.67;;;;;;;-4.67;95.97;100092.75;5059818;28;20221;-81
2022/12/12 03:20:47;;;;;;;39.60;21.97;;;;;;;-4.73;96.35;100079.78;5059961;28;20225;-81
2022/12/12 03:23:16;;;;;;;45.90;22.73;;;;;;;-4.72;96.63;100076.41;5060127;28;20645;-81
2022/12/12 03:25:47;;;;;;;51.47;23.43;;;;;;;-4.83;97.05;100068.41;5060839;28;20217;-81
2022/12/12 03:28:18;;;;;;;58.33;26.00;;;;;;;-4.88;97.67;100058.84;5060490;28;20225;-81
2022/12/12 03:30:48;;;;;;;54.73;23.93;;;;;;;-4.85;97.98;100036.94;5061101;28;20299;-81
2022/12/12 03:33:20;;;;;;;49.67;23.40;;;;;;;-4.83;98.63;100020.03;5061429;28;20212;-81
2022/12/12 03:35:54;;;;;;;50.40;23.57;;;;;;;-4.87;97.50;100012.25;5061688;28;20208;-81
2022/12/12 03:38:25;;;;;;;50.03;22.77;;;;;;;-4.90;98.18;100015.50;5069747;28;20240;-80
2022/12/12 03:40:55;;;;;;;48.70;22.53;;;;;;;-4.90;98.19;100014.66;5069141;28;20225;-81
2022/12/12 03:43:24;;;;;;;51.60;22.63;;;;;;;-4.88;97.45;100011.34;5069781;28;20212;-80
2022/12/12 03:45:56;;;;;;;53.17;24.07;;;;;;;-4.77;97.70;100018.53;5068649;28;20206;-80
2022/12/12 03:48:28;;;;;;;46.90;22.27;;;;;;;-4.57;97.50;100022.63;5069801;28;20244;-80
2022/12/12 03:51:00;;;;;;;41.30;22.10;;;;;;;-4.36;97.38;100031.81;5067904;28;20225;-79
2022/12/12 03:53:33;;;;;;;42.17;21.63;;;;;;;-4.23;95.90;100054.38;5056593;28;20209;-80
2022/12/12 03:56:05;;;;;;;45.77;22.27;;;;;;;-4.25;94.04;100081.47;5056048;28;20213;-79
2022/12/12 03:58:36;;;;;;;44.83;22.20;;;;;;;-4.69;94.78;100108.78;5056679;28;20226;-80
2022/12/12 04:01:07;;;;;;;50.50;22.07;;;;;;;-4.81;96.63;100074.41;5058112;28;20221;-78
2022/12/12 04:03:41;;;;;;;45.90;22.33;;;;;;;-4.84;97.17;100041.19;5059890;28;20205;-79
2022/12/12 04:06:26;;;;;;;48.77;23.90;;;;;;;-4.70;97.96;100028.09;5059125;28;20209;-80
2022/12/12 04:14:41;;;;;;;49.60;22.57;;;;;;;-4.46;97.22;100026.44;5059458;28;20205;-80
2022/12/12 04:17:11;;;;;;;40.40;20.53;;;;;;;-4.50;97.35;100041.53;5059479;28;20212;-80
2022/12/12 04:25:31;;;;;;;45.17;21.63;;;;;;;-4.50;96.83;100051.72;5058943;28;20248;-80
2022/12/12 04:28:03;;;;;;;43.10;21.40;;;;;;;-4.61;96.40;100059.84;5058417;28;20236;-81
2022/12/12 04:30:32;;;;;;;45.10;21.90;;;;;;;-4.75;97.32;100050.00;5058792;28;20205;-80
2022/12/12 04:33:06;;;;;;;41.87;21.70;;;;;;;-4.85;97.09;100048.78;5058221;28;20216;-80
2022/12/12 04:35:38;;;;;;;48.63;23.13;;;;;;;-4.92;97.94;100037.50;5059063;28;20204;-80
2022/12/12 04:38:09;;;;;;;46.47;21.70;;;;;;;-4.96;97.81;100032.25;5058954;28;20233;-80
2022/12/12 04:40:39;;;;;;;44.97;20.77;;;;;;;-4.88;97.82;100033.41;5058028;28;20201;-80
2022/12/12 04:43:09;;;;;;;47.33;23.00;;;;;;;-5.02;98.13;100030.34;5058609;28;20224;-80
2022/12/12 04:45:40;;;;;;;42.13;20.30;;;;;;;-5.13;98.08;100029.06;5057991;28;20217;-80
2022/12/12 04:48:09;;;;;;;43.90;21.40;;;;;;;-5.19;98.09;100027.19;5058032;28;20276;-80
2022/12/12 04:50:37;;;;;;;48.93;22.57;;;;;;;-5.08;98.77;100012.31;5057991;28;20216;-79
2022/12/12 04:53:11;;;;;;;43.47;21.53;;;;;;;-5.14;98.25;100015.50;5058340;28;20217;-81
2022/12/12 04:55:41;;;;;;;43.97;21.07;;;;;;;-5.16;98.23;100017.13;5058104;28;20214;-80
2022/12/12 04:58:09;;;;;;;50.53;22.27;;;;;;;-5.09;98.10;100026.72;5058116;28;20231;-80
2022/12/12 05:00:45;;;;;;;44.97;20.50;;;;;;;-5.16;97.60;100037.47;5058493;28;20205;-80
2022/12/12 05:03:17;;;;;;;40.30;21.07;;;;;;;-5.32;97.88;100045.34;5057309;28;20212;-79
2022/12/12 05:05:50;;;;;;;45.50;22.27;;;;;;;-5.41;98.00;100051.81;5054338;28;20212;-79
2022/12/12 05:08:23;;;;;;;41.30;21.30;;;;;;;-5.34;97.76;100050.34;5054629;28;20221;-79
2022/12/12 05:10:54;;;;;;;53.37;22.37;;;;;;;-5.33;97.33;100052.09;5055037;28;20215;-79
2022/12/12 05:13:23;;;;;;;45.97;21.53;;;;;;;-5.18;97.62;100047.56;5054549;28;20241;-80
2022/12/12 05:15:54;;;;;;;49.93;22.57;;;;;;;-5.08;97.05;100063.19;5054376;28;20201;-80
2022/12/12 05:18:22;;;;;;;51.33;23.50;;;;;;;-4.96;96.47;100065.34;5055111;28;20232;-80
2022/12/12 05:20:48;;;;;;;52.27;21.80;;;;;;;-4.96;96.02;100093.34;5054431;28;20209;-80
2022/12/12 05:23:15;;;;;;;40.30;22.07;;;;;;;-4.91;95.68;100104.56;5054740;28;20221;-80
2022/12/12 05:25:43;;;;;;;39.00;20.77;;;;;;;-4.88;95.15;100120.81;5053953;28;20212;-80
2022/12/12 05:28:09;;;;;;;39.07;20.43;;;;;;;-4.80;95.06;100131.28;5054394;28;20233;-80
2022/12/12 05:30:36;;;;;;;48.73;22.23;;;;;;;-4.79;95.36;100130.47;5053722;28;20224;-80
2022/12/12 05:33:03;;;;;;;41.33;20.57;;;;;;;-4.70;95.20;100137.59;5053554;28;20212;-80
2022/12/12 05:35:29;;;;;;;44.07;21.73;;;;;;;-4.63;94.79;100144.66;5053244;28;20201;-80
2022/12/12 05:37:56;;;;;;;40.70;21.10;;;;;;;-4.54;93.95;100164.50;5053954;28;20226;-80
2022/12/12 05:40:23;;;;;;;41.67;19.73;;;;;;;-4.47;93.20;100187.69;5052855;28;20251;-80
2022/12/12 05:42:50;;;;;;;35.83;18.87;;;;;;;-4.41;92.34;100213.41;5053341;28;20236;-80
2022/12/12 05:45:17;;;;;;;42.27;19.77;;;;;;;-4.35;91.41;100238.25;5053817;28;20288;-80
2022/12/12 05:50:19;;;;;;;32.47;19.03;;;;;;;-4.37;90.18;100295.06;5071719;22;20294;-79
2022/12/12 05:52:45;;;;;;;33.07;19.77;;;;;;;-4.51;89.85;100322.53;5057486;28;20578;-80
2022/12/12 05:55:12;;;;;;;31.97;18.47;;;;;;;-4.47;90.52;100317.63;5055874;28;20208;-80
2022/12/12 05:57:38;;;;;;;34.07;19.47;;;;;;;-4.37;90.76;100293.38;5057422;28;20229;-81
2022/12/12 06:00:07;;;;;;;31.40;20.67;;;;;;;-4.35;89.11;100331.66;5057138;28;20204;-81
2022/12/12 06:02:34;;;;;;;35.73;17.87;;;;;;;-4.42;88.22;100373.81;5057919;28;20221;-79
2022/12/12 06:05:00;;;;;;;33.07;17.80;;;;;;;-4.49;87.26;100397.34;5057878;28;20213;-81
2022/12/12 06:07:27;;;;;;;26.30;16.73;;;;;;;-4.50;87.58;100418.50;5057623;28;20236;-82
2022/12/12 06:09:54;;;;;;;31.30;17.60;;;;;;;-4.49;87.07;100427.91;5057620;28;20212;-80
2022/12/12 06:12:22;;;;;;;27.77;17.37;;;;;;;-4.39;86.47;100450.41;5056462;28;20663;-80
2022/12/12 06:14:48;;;;;;;29.97;18.63;;;;;;;-4.46;85.57;100476.41;5056940;28;20215;-80
2022/12/12 06:17:16;;;;;;;30.93;18.17;;;;;;;-4.47;85.97;100500.16;5057029;28;20351;-80
2022/12/12 06:19:43;;;;;;;31.63;17.47;;;;;;;-4.51;86.39;100491.50;5056629;28;20201;-81
2022/12/12 06:22:09;;;;;;;31.00;18.80;;;;;;;-4.46;85.97;100500.22;5056252;28;20232;-81
2022/12/12 06:24:36;;;;;;;33.37;18.47;;;;;;;-4.43;85.54;100507.13;5055897;28;20198;-80
2022/12/12 06:27:02;;;;;;;41.40;21.90;;;;;;;-4.39;85.69;100514.94;5056638;28;20710;-81
2022/12/12 06:29:29;;;;;;;44.23;21.13;;;;;;;-4.35;85.67;100525.28;5057348;28;20235;-80
2022/12/12 06:31:55;;;;;;;37.30;19.57;;;;;;;-4.30;85.06;100531.44;5055752;28;20570;-79
2022/12/12 06:34:23;;;;;;;29.73;17.33;;;;;;;-4.31;85.43;100545.00;5056367;28;20197;-79
2022/12/12 06:36:50;;;;;;;35.17;19.80;;;;;;;-4.40;85.67;100545.44;5057033;28;20225;-81
2022/12/12 06:39:16;;;;;;;27.63;17.50;;;;;;;-4.39;85.83;100530.22;5054539;28;20566;-79
2022/12/12 06:41:43;;;;;;;32.23;18.90;;;;;;;-4.41;86.62;100519.09;5056076;28;20237;-80
2022/12/12 06:44:09;;;;;;;37.20;18.10;;;;;;;-4.13;90.80;100443.81;5054554;28;20202;-81
2022/12/12 06:46:36;;;;;;;26.97;16.07;;;;;;;-3.71;94.89;100321.31;5056640;28;20296;-79
2022/12/12 06:49:08;;;;;;;31.33;16.47;;;;;;;-3.64;96.66;100233.16;5059284;28;20213;-81
2022/12/12 06:51:42;;;;;;;31.27;17.53;;;;;;;-3.49;98.45;100171.59;5060772;28;20209;-79
2022/12/12 06:54:09;;;;;;;406.83;45.03;;;;;;;-2.95;100.00;100053.28;5065127;28;20231;-81
2022/12/12 06:56:35;;;;;;;48.87;20.87;;;;;;;-3.29;100.00;100006.34;5062800;28;20206;-82
2022/12/12 06:59:02;;;;;;;102.20;25.23;;;;;;;-3.82;100.00;100024.31;5061770;28;20670;-82
2022/12/12 07:01:29;;;;;;;164.23;28.73;;;;;;;-4.09;99.56;100054.84;5061873;28;20221;-81
2022/12/12 07:03:55;;;;;;;35.33;18.40;;;;;;;-4.44;98.10;100072.31;5062957;28;20205;-81
2022/12/12 07:06:23;;;;;;;36.60;20.07;;;;;;;-4.71;97.20;100102.78;5062805;28;20208;-81
2022/12/12 07:08:51;;;;;;;44.80;21.60;;;;;;;-4.95;96.72;100126.50;5061767;28;20658;-80
2022/12/12 07:11:20;;;;;;;57.23;21.47;;;;;;;-5.33;96.19;100151.31;5057231;28;20197;-81
2022/12/12 07:13:47;;;;;;;48.67;22.23;;;;;;;-5.43;97.14;100155.16;5060775;28;20213;-80
2022/12/12 07:16:14;;;;;;;37.73;20.63;;;;;;;-5.41;98.31;100139.94;5060451;28;20202;-81
2022/12/12 07:18:41;;;;;;;45.00;18.77;;;;;;;-5.38;98.02;100128.22;5059831;28;20216;-81
2022/12/12 07:21:12;;;;;;;43.13;20.93;;;;;;;-5.35;98.44;100122.41;5058616;28;20228;-81
2022/12/12 07:23:38;;;;;;;42.87;20.57;;;;;;;-5.38;98.23;100122.25;5059497;28;20208;-80
2022/12/12 07:26:08;;;;;;;43.30;21.63;;;;;;;-5.42;98.01;100121.25;5059198;28;20212;-79
2022/12/12 07:28:36;;;;;;;40.13;20.50;;;;;;;-5.49;98.74;100119.31;5058766;28;20228;-82
2022/12/12 07:31:06;;;;;;;36.53;19.77;;;;;;;-5.61;97.94;100123.88;5057958;28;20251;-81
2022/12/12 07:33:32;;;;;;;44.60;19.30;;;;;;;-5.60;98.17;100126.47;5058902;28;20577;-82
2022/12/12 07:35:59;;;;;;;38.83;19.93;;;;;;;-5.60;97.79;100131.56;5057957;28;20216;-82
2022/12/12 07:38:26;;;;;;;47.40;20.97;;;;;;;-5.68;97.28;100135.47;5057872;28;20225;-81
2022/12/12 07:40:52;;;;;;;43.13;20.17;;;;;;;-5.88;97.06;100147.34;5058107;28;20209;-81
2022/12/12 07:43:21;;;;;;;45.17;20.83;;;;;;;-6.05;97.00;100150.88;5058433;28;20225;-82
2022/12/12 07:45:48;;;;;;;38.97;19.53;;;;;;;-6.15;97.88;100147.06;5058957;28;20216;-82
2022/12/12 07:48:14;;;;;;;44.30;20.47;;;;;;;-6.24;97.54;100141.59;5057954;28;20236;-80
2022/12/12 07:50:42;;;;;;;42.50;20.03;;;;;;;-6.21;98.52;100139.19;5058422;28;20209;-80
2022/12/12 07:53:08;;;;;;;35.90;19.37;;;;;;;-6.30;98.29;100134.59;5058414;28;20201;-81
2022/12/12 07:55:35;;;;;;;46.30;20.97;;;;;;;-6.31;98.57;100137.91;5058892;28;20208;-81
2022/12/12 07:58:01;;;;;;;36.43;18.50;;;;;;;-6.37;98.20;100144.41;5058838;28;20236;-82
2022/12/12 08:00:29;;;;;;;36.03;17.63;;;;;;;-6.47;98.41;100153.28;5057571;28;20225;-84
2022/12/12 08:02:56;;;;;;;35.47;18.37;;;;;;;-6.53;97.69;100156.41;5055045;28;20271;-84
2022/12/12 08:05:22;;;;;;;41.73;18.97;;;;;;;-6.53;97.83;100155.53;5057934;28;20211;-82
2022/12/12 08:07:49;;;;;;;34.23;17.83;;;;;;;-6.55;97.74;100159.69;5057287;28;20241;-83
2022/12/12 08:10:15;;;;;;;40.60;20.03;;;;;;;-6.52;97.72;100163.25;5057057;28;20684;-79
2022/12/12 08:12:42;;;;;;;37.80;18.87;;;;;;;-6.35;97.49;100166.50;5057654;28;20211;-83
2022/12/12 08:15:14;;;;;;;36.27;18.33;;;;;;;-6.07;97.44;100162.63;5058693;28;20216;-82
2022/12/12 08:17:42;;;;;;;36.87;18.37;;;;;;;-5.79;96.95;100172.28;5059712;28;20225;-82
2022/12/12 08:20:09;;;;;;;38.07;17.63;;;;;;;-5.59;95.86;100186.72;5060750;28;20243;-84
2022/12/12 08:22:36;;;;;;;32.43;17.47;;;;;;;-5.40;95.45;100212.88;5057987;28;20240;-84
2022/12/12 08:25:03;;;;;;;31.00;18.07;;;;;;;-5.31;94.11;100241.25;5059801;28;20674;-84
2022/12/12 08:27:30;;;;;;;36.27;18.10;;;;;;;-5.23;92.90;100272.97;5058313;28;20224;-85
2022/12/12 08:29:56;;;;;;;30.97;17.47;;;;;;;-5.12;91.85;100306.47;5058914;28;20258;-83
2022/12/12 08:32:23;;;;;;;48.23;24.33;;;;;;;-5.02;90.99;100333.19;5058523;28;20212;-86
2022/12/12 08:34:50;;;;;;;44.37;22.47;;;;;;;-4.94;90.36;100364.06;5058042;28;20197;-83
2022/12/12 08:37:17;;;;;;;49.17;21.53;;;;;;;-4.94;89.90;100402.22;5055751;28;20304;-85
2022/12/12 08:39:43;;;;;;;43.83;23.00;;;;;;;-4.89;89.20;100423.69;5056037;28;20206;-82
2022/12/12 08:42:11;;;;;;;50.77;23.93;;;;;;;-4.84;88.61;100445.97;5055514;28;20238;-80
2022/12/12 08:44:37;;;;;;;40.37;23.10;;;;;;;-4.82;88.22;100469.81;5054405;28;20263;-82
2022/12/12 08:47:04;;;;;;;40.27;22.67;;;;;;;-4.73;87.89;100488.84;5056085;28;20614;-80
2022/12/12 08:49:31;;;;;;;46.17;23.23;;;;;;;-4.71;87.58;100508.47;5055035;28;20213;-81
2022/12/12 08:51:59;;;;;;;41.97;22.23;;;;;;;-4.71;87.55;100528.84;5053764;28;20205;-85
2022/12/12 08:54:25;;;;;;;40.33;21.23;;;;;;;-4.76;86.84;100540.50;5053961;28;20205;-79
2022/12/12 08:56:52;;;;;;;42.73;22.43;;;;;;;-4.69;86.85;100547.63;5053845;28;20245;-82
2022/12/12 08:59:19;;;;;;;40.33;21.90;;;;;;;-4.62;86.59;100557.28;5053993;28;20213;-82
2022/12/12 09:01:46;;;;;;;34.70;21.17;;;;;;;-4.55;86.46;100568.59;5053728;28;20209;-83
2022/12/12 09:04:12;;;;;;;44.67;22.93;;;;;;;-4.54;85.88;100584.75;5053587;28;20213;-80
2022/12/12 09:06:39;;;;;;;33.73;19.90;;;;;;;-4.59;86.53;100587.97;5053592;28;20590;-81
2022/12/12 09:09:07;;;;;;;37.00;20.27;;;;;;;-4.55;86.77;100585.56;5053582;28;20209;-81
2022/12/12 09:11:33;;;;;;;40.27;22.03;;;;;;;-4.68;86.57;100582.44;5053314;28;20210;-82
2022/12/12 09:14:00;;;;;;;44.70;23.17;;;;;;;-4.58;87.22;100568.44;5052786;28;20208;-82
2022/12/12 09:16:28;;;;;;;41.00;22.37;;;;;;;-4.47;87.61;100556.19;5053043;28;20205;-83
2022/12/12 09:18:55;;;;;;;33.43;20.03;;;;;;;-4.44;87.81;100554.66;5056107;28;20206;-81
2022/12/12 09:21:21;;;;;;;32.27;18.53;;;;;;;-4.32;87.51;100551.78;5056451;28;20667;-81
2022/12/12 09:23:49;;;;;;;31.33;18.80;;;;;;;-4.24;87.37;100549.53;5056921;28;20411;-82
2022/12/12 09:26:17;;;;;;;26.77;17.37;;;;;;;-4.10;87.95;100542.47;5057712;28;20213;-80
2022/12/12 09:28:44;;;;;;;34.00;18.63;;;;;;;-4.21;87.51;100542.88;5054892;28;20271;-79
2022/12/12 09:31:12;;;;;;;41.30;20.87;;;;;;;-4.30;88.50;100544.16;5054627;28;20205;-79
2022/12/12 09:33:39;;;;;;;40.70;21.37;;;;;;;-4.62;89.80;100515.63;5055237;28;20205;-80
2022/12/12 09:36:07;;;;;;;37.43;20.63;;;;;;;-4.89;91.53;100462.72;5054840;28;20216;-81
2022/12/12 09:38:34;;;;;;;35.07;20.00;;;;;;;-4.96;93.27;100404.72;5055113;28;20240;-79
2022/12/12 09:41:03;;;;;;;36.60;20.53;;;;;;;-4.72;93.65;100366.69;5056159;28;20208;-80
2022/12/12 09:43:34;;;;;;;39.60;19.70;;;;;;;-4.46;93.65;100346.50;5055463;28;20233;-79
2022/12/12 09:46:02;;;;;;;36.97;19.50;;;;;;;-4.26;93.72;100335.44;5053675;28;20210;-77
2022/12/12 09:48:40;;;;;;;38.87;20.33;;;;;;;-4.11;93.20;100340.22;5053821;28;20244;-79
2022/12/12 09:51:08;;;;;;;27.37;17.17;;;;;;;-4.02;92.88;100345.69;5054682;28;20214;-76
2022/12/12 09:53:35;;;;;;;30.67;18.40;;;;;;;-3.95;92.12;100356.97;5053608;28;20216;-78
2022/12/12 09:56:10;;;;;;;32.27;17.63;;;;;;;-4.00;91.96;100364.47;5052791;28;20205;-77
2022/12/12 09:58:46;;;;;;;30.80;18.00;;;;;;;-3.89;nan;100366.56;5052505;28;20275;-77
2022/12/12 10:01:23;;;;;;;27.60;17.30;;;;;;;-3.76;91.59;100380.66;5051913;28;20482;-76
2022/12/12 10:04:03;;;;;;;25.87;16.33;;;;;;;-3.67;90.75;100386.94;5051833;28;20235;-76
2022/12/12 10:06:35;;;;;;;29.57;16.80;;;;;;;-3.73;89.98;100408.81;5051879;28;20209;-76
2022/12/12 10:09:13;;;;;;;30.10;17.63;;;;;;;-3.69;90.14;100426.81;5052000;28;20201;-76
2022/12/12 10:11:53;;;;;;;32.73;18.77;;;;;;;-3.94;90.99;100431.78;5051777;28;20205;-76
2022/12/12 10:14:26;;;;;;;27.47;18.70;;;;;;;-4.27;92.35;100396.53;5051791;28;20201;-76
2022/12/12 10:16:55;;;;;;;35.80;20.83;;;;;;;-4.34;93.13;100366.50;5051655;28;20749;-75
2022/12/12 10:19:25;;;;;;;34.27;18.23;;;;;;;-4.23;93.34;100344.88;5051908;28;20210;-76
2022/12/12 10:21:54;;;;;;;30.13;18.53;;;;;;;-4.05;93.84;100330.28;5051780;28;20207;-77
2022/12/12 10:24:30;;;;;;;38.47;19.30;;;;;;;-3.91;93.04;100335.88;5052128;28;20228;-75
2022/12/12 10:26:58;;;;;;;36.30;19.23;;;;;;;-3.83;93.00;100331.94;5051615;28;20225;-76
2022/12/12 10:29:27;;;;;;;32.17;19.10;;;;;;;-3.85;92.40;100360.75;5052891;28;20216;-78
2022/12/12 10:32:07;;;;;;;36.07;19.70;;;;;;;-4.17;93.64;100352.75;5056511;28;20206;-80
2022/12/12 10:34:47;;;;;;;28.13;18.57;;;;;;;-4.36;94.96;100319.72;5056217;28;20241;-79
2022/12/12 10:37:28;;;;;;;44.47;25.52;;;;;;;-4.30;95.84;100282.63;5051431;28;20447;-77
2022/12/12 10:40:03;;;;;;;38.53;20.37;;;;;;;-4.28;96.21;100250.41;5051164;28;20201;-77
2022/12/12 10:42:46;;;;;;;38.30;20.30;;;;;;;-4.26;96.96;100223.31;4694324;28;10002939;-76
2022/12/12 10:45:32;;;;;;;35.70;19.20;;;;;;;-4.11;97.60;100197.50;5048222;28;20623;-76
2022/12/12 10:47:59;;;;;;;34.00;19.70;;;;;;;-3.96;97.30;100199.75;5046651;28;20225;-77
2022/12/12 10:50:30;;;;;;;32.10;18.47;;;;;;;-3.75;97.25;100186.88;5048450;28;20244;-77
2022/12/12 10:52:56;;;;;;;32.93;18.77;;;;;;;-3.57;96.89;100199.38;5046801;28;20208;-76
2022/12/12 10:55:35;;;;;;;24.47;17.57;;;;;;;-3.36;95.62;100206.03;5048246;28;20216;-75
2022/12/12 10:58:03;;;;;;;34.03;18.47;;;;;;;-3.19;94.89;100233.00;5028379;28;20222;-75
2022/12/12 11:00:33;;;;;;;22.63;16.07;;;;;;;-3.06;93.29;100268.31;5027397;28;20202;-77
2022/12/12 11:03:12;;;;;;;26.77;17.33;;;;;;;-3.00;92.69;100298.28;5028413;28;20237;-76
2022/12/12 11:05:40;;;;;;;27.90;17.53;;;;;;;-2.99;91.87;100333.22;5028502;28;20214;-76
2022/12/12 11:08:18;;;;;;;28.53;17.27;;;;;;;-3.04;91.52;100355.16;5028608;28;20241;-76
2022/12/12 11:10:57;;;;;;;26.47;17.37;;;;;;;-3.07;91.28;100362.72;5028341;28;20221;-76
2022/12/12 11:13:24;;;;;;;34.27;18.03;;;;;;;-3.06;91.60;100370.44;5029255;28;20201;-76
2022/12/12 11:15:57;;;;;;;28.67;17.73;;;;;;;-2.98;91.62;100370.69;5028736;28;20214;-74
2022/12/12 11:18:25;;;;;;;28.27;18.47;;;;;;;-2.91;91.11;100374.34;5029602;28;20235;-78
2022/12/12 11:21:05;;;;;;;23.00;17.10;;;;;;;-2.84;91.36;100381.38;5028722;28;20202;-76
2022/12/12 11:23:33;;;;;;;26.67;18.90;;;;;;;-2.82;90.85;100384.84;5028786;28;20709;-76
2022/12/12 11:26:03;;;;;;;33.23;19.73;;;;;;;-2.83;91.08;100386.56;5037136;28;20197;-78
2022/12/12 11:28:33;;;;;;;37.50;19.60;;;;;;;-2.82;90.97;100392.53;5050668;28;20226;-79
2022/12/12 11:31:05;;;;;;;32.93;19.03;;;;;;;-2.86;90.47;100390.69;5051770;28;20228;-79
2022/12/12 11:33:35;;;;;;;39.07;20.03;;;;;;;-2.86;90.88;100393.25;5052819;28;20259;-79
2022/12/12 11:36:05;;;;;;;37.70;21.33;;;;;;;-2.81;90.87;100392.59;5053201;28;21016;-79
2022/12/12 11:38:37;;;;;;;39.33;22.17;;;;;;;-2.76;91.10;100384.22;5053926;28;20580;-79